createdAt,value
2022-10-02T00:02:24.955Z,100605.88
2022-10-02T00:05:06.979Z,100610.84
2022-10-02T00:07:41.083Z,100622.91
2022-10-02T00:10:44.798Z,100623.25
2022-10-02T00:13:21.990Z,100625.16
2022-10-02T00:15:48.958Z,100628.63
2022-10-02T00:18:20.239Z,100628.69
2022-10-02T00:21:10.716Z,100630.31
2022-10-02T00:23:44.040Z,100618.69
2022-10-02T00:26:23.870Z,100615.84
2022-10-02T00:28:57.883Z,100606.44
2022-10-02T00:31:33.426Z,100607.50
2022-10-02T00:34:26.966Z,100606.09
2022-10-02T00:37:05.598Z,100603.28
2022-10-02T00:40:10.245Z,100606.34
2022-10-02T00:42:48.692Z,100607.38
2022-10-02T00:45:25.925Z,100606.19
2022-10-02T00:48:27.473Z,100605.41
2022-10-02T00:51:14.809Z,100609.53
2022-10-02T00:53:46.833Z,100612.19
2022-10-02T00:56:19.878Z,100612.00
2022-10-02T00:58:58.910Z,100613.44
2022-10-02T01:01:41.696Z,100615.06
2022-10-02T01:04:12.270Z,100624.69
2022-10-02T01:06:38.942Z,100619.72
2022-10-02T01:09:05.546Z,100620.41
2022-10-02T01:11:32.113Z,100618.94
2022-10-02T01:13:58.822Z,100615.44
2022-10-02T01:16:26.079Z,100622.63
2022-10-02T01:18:52.670Z,100618.47
2022-10-02T01:21:37.991Z,100616.66
2022-10-02T01:24:20.139Z,100624.59
2022-10-02T01:26:46.726Z,100627.63
2022-10-02T01:29:13.811Z,100637.75
2022-10-02T01:31:40.347Z,100636.09
2022-10-02T01:34:07.093Z,100641.56
2022-10-02T01:36:33.876Z,100641.00
2022-10-02T01:39:01.320Z,100646.91
2022-10-02T01:41:27.986Z,100650.16
2022-10-02T01:43:57.948Z,100655.41
2022-10-02T01:46:31.317Z,100650.66
2022-10-02T01:48:57.670Z,100655.34
2022-10-02T01:51:59.895Z,100657.81
2022-10-02T01:54:58.498Z,100656.47
2022-10-02T01:57:46.482Z,100659.69
2022-10-02T02:00:22.239Z,100660.56
2022-10-02T02:03:10.965Z,100672.72
2022-10-02T02:06:03.547Z,100666.09
2022-10-02T02:08:58.456Z,100664.66
2022-10-02T02:11:28.481Z,100663.78
2022-10-02T02:14:27.232Z,100669.41
2022-10-02T02:17:00.463Z,100666.34
2022-10-02T02:19:42.396Z,100666.84
2022-10-02T02:22:30.239Z,100673.81
2022-10-02T02:25:16.639Z,100666.75
2022-10-02T02:27:45.569Z,100667.22
2022-10-02T02:30:13.536Z,100663.78
2022-10-02T02:32:45.443Z,100670.78
2022-10-02T02:35:21.442Z,100672.41
2022-10-02T02:37:49.407Z,100673.75
2022-10-02T02:40:17.399Z,100675.19
2022-10-02T02:42:51.559Z,100683.22
2022-10-02T02:45:39.007Z,100675.28
2022-10-02T02:48:12.398Z,100682.88
2022-10-02T02:50:48.770Z,100685.56
2022-10-02T02:53:25.202Z,100681.69
2022-10-02T02:56:00.431Z,100675.97
2022-10-02T02:58:31.022Z,100683.75
2022-10-02T03:00:57.805Z,100680.13
2022-10-02T03:03:24.471Z,100687.16
2022-10-02T03:05:53.671Z,100694.22
2022-10-02T03:08:26.358Z,100688.34
2022-10-02T03:11:15.525Z,100693.50
2022-10-02T03:13:46.621Z,100699.06
2022-10-02T03:16:36.527Z,100690.69
2022-10-02T03:19:08.988Z,100695.22
2022-10-02T03:21:40.768Z,100699.13
2022-10-02T03:24:44.338Z,100691.97
2022-10-02T03:27:48.062Z,100697.28
2022-10-02T03:30:16.065Z,100703.06
2022-10-02T03:32:43.976Z,100700.00
2022-10-02T03:35:13.060Z,100698.16
2022-10-02T03:37:41.895Z,100706.31
2022-10-02T03:40:09.243Z,100708.13
2022-10-02T03:42:36.693Z,100706.28
2022-10-02T03:45:04.056Z,100706.66
2022-10-02T03:47:30.724Z,100719.13
2022-10-02T03:49:57.176Z,100705.31
2022-10-02T03:52:24.275Z,100703.81
2022-10-02T03:54:58.686Z,100698.28
2022-10-02T03:57:25.762Z,100701.72
2022-10-02T04:00:09.293Z,100705.38
2022-10-02T04:03:12.825Z,100707.47
2022-10-02T04:05:50.224Z,100703.59
2022-10-02T04:08:24.218Z,100709.31
2022-10-02T04:11:04.697Z,100701.50
2022-10-02T04:13:41.056Z,100697.16
2022-10-02T04:16:12.765Z,100694.50
2022-10-02T04:18:44.493Z,100688.09
2022-10-02T04:21:44.555Z,100697.28
2022-10-02T04:24:29.109Z,100694.59
2022-10-02T04:27:03.638Z,100708.78
2022-10-02T04:29:53.331Z,100712.88
2022-10-02T04:32:26.136Z,100715.16
2022-10-02T04:34:52.833Z,100719.97
2022-10-02T04:37:45.217Z,100708.03
2022-10-02T04:40:50.331Z,100712.91
2022-10-02T04:44:06.977Z,100725.94
2022-10-02T04:46:51.156Z,100724.00
2022-10-02T04:49:27.364Z,100724.75
2022-10-02T04:52:06.864Z,100726.94
2022-10-02T04:55:08.443Z,100731.38
2022-10-02T04:58:13.663Z,100725.69
2022-10-02T05:00:45.305Z,100728.69
2022-10-02T05:03:51.691Z,100733.03
2022-10-02T05:06:37.130Z,100731.00
2022-10-02T05:09:18.434Z,100730.13
2022-10-02T05:11:58.610Z,100732.00
2022-10-02T05:14:37.293Z,100733.28
2022-10-02T05:17:40.742Z,100740.19
2022-10-02T05:20:28.933Z,100737.44
2022-10-02T05:23:30.946Z,100748.06
2022-10-02T05:26:29.640Z,100749.53
2022-10-02T05:29:25.337Z,100751.69
2022-10-02T05:32:20.248Z,100759.09
2022-10-02T05:35:23.942Z,100756.69
2022-10-02T05:38:16.370Z,100764.28
2022-10-02T05:41:04.535Z,100759.16
2022-10-02T05:43:46.421Z,100761.31
2022-10-02T05:46:23.497Z,100770.09
2022-10-02T05:49:03.003Z,100764.22
2022-10-02T05:51:55.628Z,100772.44
2022-10-02T05:54:30.541Z,100774.59
2022-10-02T05:57:21.379Z,100775.56
2022-10-02T06:00:06.575Z,100787.38
2022-10-02T06:02:44.942Z,100797.63
2022-10-02T06:05:34.679Z,100798.16
2022-10-02T06:08:03.242Z,100804.38
2022-10-02T06:10:36.620Z,100801.06
2022-10-02T06:13:35.521Z,100808.63
2022-10-02T06:16:10.761Z,100810.50
2022-10-02T06:18:38.963Z,100812.13
2022-10-02T06:21:22.279Z,100819.09
2022-10-02T06:23:52.644Z,100828.34
2022-10-02T06:26:45.692Z,100826.44
2022-10-02T06:29:31.704Z,100834.25
2022-10-02T06:32:15.298Z,100833.69
2022-10-02T06:34:44.648Z,100840.88
2022-10-02T06:37:38.038Z,100844.56
2022-10-02T06:40:42.650Z,100840.47
2022-10-02T06:43:14.017Z,100846.63
2022-10-02T06:46:03.232Z,100847.81
2022-10-02T06:48:54.064Z,100851.06
2022-10-02T06:51:46.236Z,100853.00
2022-10-02T06:54:25.944Z,100855.19
2022-10-02T06:57:28.547Z,100858.63
2022-10-02T07:00:02.290Z,100866.41
2022-10-02T07:02:36.649Z,100879.31
2022-10-02T07:05:30.881Z,100871.22
2022-10-02T07:08:00.934Z,100880.09
2022-10-02T07:10:38.677Z,100873.72
2022-10-02T07:13:17.732Z,100872.47
2022-10-02T07:15:55.603Z,100874.75
2022-10-02T07:18:50.600Z,100876.16
2022-10-02T07:21:40.785Z,100886.56
2022-10-02T07:24:26.543Z,100885.94
2022-10-02T07:27:02.880Z,100888.75
2022-10-02T07:29:35.027Z,100897.22
2022-10-02T07:32:30.935Z,100895.66
2022-10-02T07:35:23.266Z,100892.22
2022-10-02T07:38:10.090Z,100903.34
2022-10-02T07:41:03.372Z,100918.84
2022-10-02T07:43:47.472Z,100929.84
2022-10-02T07:46:16.975Z,100926.41
2022-10-02T07:49:00.522Z,100937.31
2022-10-02T07:51:47.700Z,100934.34
2022-10-02T07:54:22.150Z,100942.69
2022-10-02T07:56:50.146Z,100945.94
2022-10-02T07:59:17.625Z,100946.47
2022-10-02T08:01:45.354Z,100955.41
2022-10-02T08:04:22.749Z,100952.13
2022-10-02T08:06:52.069Z,100954.16
2022-10-02T08:09:27.939Z,100948.00
2022-10-02T08:12:04.166Z,100958.66
2022-10-02T08:14:39.344Z,100950.78
2022-10-02T08:17:30.659Z,100951.09
2022-10-02T08:20:04.081Z,100947.66
2022-10-02T08:22:30.963Z,100944.03
2022-10-02T08:24:59.924Z,100946.59
2022-10-02T08:27:46.914Z,100943.97
2022-10-02T08:30:19.473Z,100946.56
2022-10-02T08:32:47.843Z,100944.25
2022-10-02T08:35:17.052Z,100949.84
2022-10-02T08:38:10.200Z,100943.47
2022-10-02T08:41:23.139Z,100961.59
2022-10-02T08:44:16.350Z,100963.34
2022-10-02T08:47:07.206Z,100968.31
2022-10-02T08:49:57.179Z,100985.97
2022-10-02T08:53:09.856Z,100993.97
2022-10-02T08:56:04.228Z,101002.09
2022-10-02T08:59:04.363Z,100997.06
2022-10-02T09:01:44.264Z,101005.03
2022-10-02T09:04:40.714Z,100999.94
2022-10-02T09:07:31.316Z,101005.09
2022-10-02T09:10:35.640Z,100998.31
2022-10-02T09:13:34.381Z,100999.94
2022-10-02T09:16:11.579Z,100995.09
2022-10-02T09:19:02.876Z,101011.38
2022-10-02T09:21:51.739Z,100993.84
2022-10-02T09:24:36.431Z,100996.06
2022-10-02T09:27:47.199Z,100994.06
2022-10-02T09:30:26.946Z,100982.19
2022-10-02T09:33:07.807Z,100988.19
2022-10-02T09:35:37.163Z,100995.25
2022-10-02T09:38:30.034Z,101015.41
2022-10-02T09:41:30.507Z,101005.56
2022-10-02T09:44:29.005Z,100998.47
2022-10-02T09:47:30.792Z,101009.22
2022-10-02T09:50:22.645Z,101006.63
2022-10-02T09:53:09.385Z,101001.47
2022-10-02T09:56:03.415Z,101026.09
2022-10-02T09:59:04.040Z,101029.31
2022-10-02T10:01:57.942Z,101028.81
2022-10-02T10:05:05.668Z,101048.84
2022-10-02T10:08:10.205Z,101066.88
2022-10-02T10:11:00.531Z,101070.66
2022-10-02T10:13:38.052Z,101051.56
2022-10-02T10:16:29.430Z,101054.75
2022-10-02T10:19:13.255Z,101059.66
2022-10-02T10:22:12.458Z,101062.44
2022-10-02T10:24:57.742Z,101071.72
2022-10-02T10:27:43.059Z,101076.63
2022-10-02T10:30:39.198Z,101086.09
2022-10-02T10:33:08.600Z,101082.81
2022-10-02T10:36:05.591Z,101084.22
2022-10-02T10:38:52.114Z,101079.41
2022-10-02T10:41:31.831Z,101082.16
2022-10-02T10:44:15.458Z,101086.06
2022-10-02T10:47:18.209Z,101090.44
2022-10-02T10:50:23.951Z,101099.34
2022-10-02T10:53:22.466Z,101081.91
2022-10-02T10:56:19.258Z,101086.66
2022-10-02T10:59:06.293Z,101077.13
2022-10-02T11:02:02.768Z,101067.47
2022-10-02T11:04:38.865Z,101084.94
2022-10-02T11:07:34.651Z,101090.34
2022-10-02T11:10:28.279Z,101083.28
2022-10-02T11:13:11.881Z,101078.75
2022-10-02T11:15:59.200Z,101055.31
2022-10-02T11:19:03.205Z,101078.94
2022-10-02T11:21:46.008Z,101090.28
2022-10-02T11:24:23.691Z,101094.91
2022-10-02T11:26:50.184Z,101088.19
2022-10-02T11:29:57.143Z,101100.03
2022-10-02T11:32:36.128Z,101111.03
2022-10-02T11:35:20.646Z,101117.59
2022-10-02T11:38:04.162Z,101106.84
2022-10-02T11:40:44.367Z,101101.63
2022-10-02T11:43:13.987Z,101098.63
2022-10-02T11:46:00.162Z,101077.09
2022-10-02T11:48:44.899Z,101078.84
2022-10-02T11:51:11.332Z,101086.97
2022-10-02T11:54:21.946Z,101114.09
2022-10-02T11:57:22.666Z,101130.44
2022-10-02T11:59:54.966Z,101130.94
2022-10-02T12:02:31.251Z,101135.84
2022-10-02T12:05:08.280Z,101141.31
2022-10-02T12:08:29.717Z,101115.94
2022-10-02T12:11:02.666Z,101115.94
2022-10-02T12:14:00.672Z,101109.38
2022-10-02T12:16:51.944Z,101120.41
2022-10-02T12:19:38.800Z,101164.16
2022-10-02T12:22:33.120Z,101143.19
2022-10-02T12:25:49.336Z,101185.50
2022-10-02T12:28:28.521Z,101187.31
2022-10-02T12:31:21.755Z,101168.44
2022-10-02T12:34:24.692Z,101183.28
2022-10-02T12:37:06.284Z,101186.69
2022-10-02T12:39:51.590Z,101179.06
2022-10-02T12:42:40.960Z,101190.03
2022-10-02T12:45:27.736Z,101190.91
2022-10-02T12:48:18.178Z,101198.03
2022-10-02T12:51:09.902Z,101192.81
2022-10-02T12:54:06.175Z,101210.44
2022-10-02T12:56:37.959Z,101212.75
2022-10-02T12:59:43.593Z,101221.34
2022-10-02T13:03:01.337Z,101230.22
2022-10-02T13:06:06.846Z,101233.44
2022-10-02T13:08:58.652Z,101219.34
2022-10-02T13:11:28.718Z,101191.78
2022-10-02T13:14:16.462Z,101169.97
2022-10-02T13:16:58.168Z,101155.44
2022-10-02T13:19:30.371Z,101139.97
2022-10-02T13:22:15.423Z,101137.22
2022-10-02T13:25:15.720Z,101162.38
2022-10-02T13:27:52.330Z,101174.69
2022-10-02T13:30:25.591Z,101191.97
2022-10-02T13:33:05.867Z,101184.44
2022-10-02T13:36:17.027Z,101161.44
2022-10-02T13:38:43.533Z,101182.94
2022-10-02T13:41:28.779Z,101177.13
2022-10-02T13:44:07.988Z,101193.44
2022-10-02T13:47:05.788Z,101229.75
2022-10-02T13:49:52.751Z,101248.22
2022-10-02T13:52:38.269Z,101290.41
2022-10-02T13:55:20.522Z,101305.91
2022-10-02T13:58:24.564Z,101272.63
2022-10-02T14:01:04.435Z,101252.25
2022-10-02T14:03:54.643Z,101256.91
2022-10-02T14:06:29.308Z,101251.47
2022-10-02T14:09:14.580Z,101259.75
2022-10-02T14:11:47.547Z,101251.22
2022-10-02T14:14:45.852Z,101252.50
2022-10-02T14:17:32.612Z,101263.47
2022-10-02T14:20:19.001Z,101256.47
2022-10-02T14:23:07.112Z,101276.25
2022-10-02T14:25:42.881Z,101291.50
2022-10-02T14:28:09.398Z,101305.44
2022-10-02T14:30:45.818Z,101309.63
2022-10-02T14:33:24.243Z,101326.59
2022-10-02T14:36:07.156Z,101333.47
2022-10-02T14:38:41.526Z,101333.25
2022-10-02T14:41:28.941Z,101325.00
2022-10-02T14:44:28.541Z,101320.53
2022-10-02T14:47:24.210Z,101328.13
2022-10-02T14:50:19.597Z,101327.69
2022-10-02T14:53:04.816Z,101328.72
2022-10-02T14:55:53.865Z,101317.34
2022-10-02T14:58:39.312Z,101302.03
2022-10-02T15:01:32.156Z,101310.31
2022-10-02T15:04:17.236Z,101313.03
2022-10-02T15:06:51.404Z,101320.28
2022-10-02T15:09:33.337Z,101328.56
2022-10-02T15:12:02.560Z,101336.59
2022-10-02T15:14:51.090Z,101347.53
2022-10-02T15:17:48.978Z,101347.53
2022-10-02T15:20:39.132Z,101353.53
2022-10-02T15:23:12.755Z,101363.63
2022-10-02T15:25:39.109Z,101359.50
2022-10-02T15:28:35.757Z,101372.47
2022-10-02T15:31:41.149Z,101371.84
2022-10-02T15:34:28.752Z,101369.19
2022-10-02T15:37:08.520Z,101384.03
2022-10-02T15:39:37.888Z,101395.91
2022-10-02T15:42:08.724Z,101389.31
2022-10-02T15:45:00.028Z,101402.47
2022-10-02T15:47:49.086Z,101407.00
2022-10-02T15:50:16.084Z,101416.44
2022-10-02T15:53:02.034Z,101420.75
2022-10-02T15:55:47.628Z,101424.63
2022-10-02T15:58:26.154Z,101421.13
2022-10-02T16:01:01.493Z,101430.78
2022-10-02T16:03:53.924Z,101429.88
2022-10-02T16:06:40.006Z,101444.03
2022-10-02T16:09:35.641Z,101436.38
2022-10-02T16:12:21.231Z,101456.59
2022-10-02T16:15:02.444Z,101455.13
2022-10-02T16:17:41.290Z,101457.22
2022-10-02T16:20:30.438Z,101450.84
2022-10-02T16:23:22.489Z,101456.38
2022-10-02T16:26:18.578Z,101450.78
2022-10-02T16:28:58.384Z,101458.63
2022-10-02T16:31:37.101Z,101462.56
2022-10-02T16:34:14.168Z,101464.00
2022-10-02T16:36:51.018Z,101462.72
2022-10-02T16:39:35.951Z,101466.75
2022-10-02T16:42:31.974Z,101460.72
2022-10-02T16:45:29.471Z,101471.91
2022-10-02T16:48:07.907Z,101482.47
2022-10-02T16:51:06.864Z,101486.09
2022-10-02T16:53:41.865Z,101487.28
2022-10-02T16:56:20.934Z,101494.44
2022-10-02T16:59:01.415Z,101498.97
2022-10-02T17:01:28.199Z,101497.78
2022-10-02T17:03:56.445Z,101499.22
2022-10-02T17:06:24.440Z,101505.31
2022-10-02T17:09:12.099Z,101507.34
2022-10-02T17:11:51.683Z,101508.69
2022-10-02T17:14:22.026Z,101511.09
2022-10-02T17:17:11.643Z,101507.16
2022-10-02T17:19:52.179Z,101498.50
2022-10-02T17:22:38.320Z,101526.97
2022-10-02T17:25:06.748Z,101525.91
2022-10-02T17:27:33.091Z,101531.78
2022-10-02T17:30:17.152Z,101527.19
2022-10-02T17:32:46.584Z,101527.75
2022-10-02T17:35:19.734Z,101533.09
2022-10-02T17:38:06.787Z,101531.34
2022-10-02T17:40:47.174Z,101542.78
2022-10-02T17:43:17.356Z,101548.22
2022-10-02T17:46:21.523Z,101552.06
2022-10-02T17:49:12.885Z,101565.97
2022-10-02T17:52:27.630Z,101559.72
2022-10-02T17:55:31.323Z,101563.75
2022-10-02T17:58:17.939Z,101564.50
2022-10-02T18:01:06.091Z,101568.63
2022-10-02T18:03:54.418Z,101578.19
2022-10-02T18:06:32.117Z,101577.09
2022-10-02T18:09:04.862Z,101580.13
2022-10-02T18:11:49.989Z,101584.81
2022-10-02T18:14:31.115Z,101582.50
2022-10-02T18:17:30.024Z,101587.13
2022-10-02T18:20:18.543Z,101592.81
2022-10-02T18:23:15.873Z,101584.16
2022-10-02T18:26:14.333Z,101586.66
2022-10-02T18:29:03.703Z,101588.66
2022-10-02T18:32:00.524Z,101587.00
2022-10-02T18:34:45.369Z,101600.16
2022-10-02T18:37:54.565Z,101603.38
2022-10-02T18:40:45.271Z,101600.88
2022-10-02T18:43:15.524Z,101616.34
2022-10-02T18:45:55.883Z,101612.63
2022-10-02T18:48:41.055Z,101624.00
2022-10-02T18:51:32.757Z,101624.47
2022-10-02T18:54:13.374Z,101634.41
2022-10-02T18:56:53.306Z,101630.66
2022-10-02T18:59:59.070Z,101633.97
2022-10-02T19:03:09.931Z,101626.50
2022-10-02T19:05:42.306Z,101623.44
2022-10-02T19:08:11.318Z,101624.00
2022-10-02T19:10:41.046Z,101627.00
2022-10-02T19:13:18.043Z,101639.69
2022-10-02T19:15:46.653Z,101641.78
2022-10-02T19:18:23.470Z,101642.50
2022-10-02T19:21:11.227Z,101651.03
2022-10-02T19:23:37.663Z,101642.19
2022-10-02T19:26:24.815Z,101643.09
2022-10-02T19:29:06.244Z,101649.91
2022-10-02T19:31:36.248Z,101653.41
2022-10-02T19:34:16.755Z,101652.09
2022-10-02T19:36:50.314Z,101659.69
2022-10-02T19:39:30.898Z,101665.53
2022-10-02T19:42:00.798Z,101662.34
2022-10-02T19:44:38.246Z,101670.88
2022-10-02T19:47:17.183Z,101674.34
2022-10-02T19:49:47.278Z,101673.78
2022-10-02T19:52:33.246Z,101676.94
2022-10-02T19:55:03.302Z,101679.94
2022-10-02T19:57:31.740Z,101680.81
2022-10-02T19:59:59.819Z,101683.78
2022-10-02T20:02:30.024Z,101682.97
2022-10-02T20:04:59.247Z,101691.78
2022-10-02T20:07:28.002Z,101688.66
2022-10-02T20:09:57.879Z,101689.19
2022-10-02T20:12:30.635Z,101687.03
2022-10-02T20:15:00.960Z,101689.06
2022-10-02T20:17:27.427Z,101686.91
2022-10-02T20:19:57.721Z,101690.09
2022-10-02T20:22:50.058Z,101690.59
2022-10-02T20:25:20.616Z,101690.47
2022-10-02T20:27:55.954Z,101691.13
2022-10-02T20:30:23.539Z,101699.44
2022-10-02T20:33:06.804Z,101696.31
2022-10-02T20:35:44.854Z,101710.69
2022-10-02T20:38:18.035Z,101708.66
2022-10-02T20:40:46.645Z,101714.66
2022-10-02T20:43:18.919Z,101722.00
2022-10-02T20:46:16.244Z,101719.19
2022-10-02T20:49:08.142Z,101716.72
2022-10-02T20:52:01.809Z,101727.53
2022-10-02T20:55:31.040Z,101729.38
2022-10-02T20:58:14.669Z,101730.72
2022-10-02T21:01:12.603Z,101727.75
2022-10-02T21:03:39.031Z,101737.38
2022-10-02T21:06:22.507Z,101735.41
2022-10-02T21:08:53.205Z,101736.91
2022-10-02T21:11:29.337Z,101738.75
2022-10-02T21:14:17.577Z,101749.00
2022-10-02T21:17:14.012Z,101749.44
2022-10-02T21:20:16.641Z,101753.28
2022-10-02T21:23:08.862Z,101751.75
2022-10-02T21:25:56.742Z,101754.91
2022-10-02T21:28:51.546Z,101749.59
2022-10-02T21:31:58.733Z,101755.59
2022-10-02T21:34:46.941Z,101752.63
2022-10-02T21:37:22.267Z,101750.63
2022-10-02T21:40:20.367Z,101761.72
2022-10-02T21:43:11.645Z,101763.28
2022-10-02T21:46:09.113Z,101763.06
2022-10-02T21:48:52.809Z,101773.94
2022-10-02T21:51:46.052Z,101770.75
2022-10-02T21:54:45.279Z,101777.28
2022-10-02T21:57:20.675Z,101776.91
2022-10-02T22:00:32.483Z,101792.06
2022-10-02T22:03:17.745Z,101784.03
2022-10-02T22:06:06.731Z,101796.81
2022-10-02T22:08:58.931Z,101796.53
2022-10-02T22:11:45.995Z,101803.19
2022-10-02T22:14:23.398Z,101794.22
2022-10-02T22:17:04.525Z,101797.69
2022-10-02T22:19:36.875Z,101805.53
2022-10-02T22:22:10.894Z,101804.22
2022-10-02T22:25:04.256Z,101809.91
2022-10-02T22:27:39.763Z,101815.56
2022-10-02T22:30:07.618Z,101819.41
2022-10-02T22:33:11.191Z,101814.09
2022-10-02T22:36:02.957Z,101810.63
2022-10-02T22:38:36.582Z,101812.63
2022-10-02T22:41:05.679Z,101813.31
2022-10-02T22:43:41.202Z,101816.47
2022-10-02T22:46:17.154Z,101826.94
2022-10-02T22:48:53.483Z,101834.25
2022-10-02T22:51:29.842Z,101833.59
2022-10-02T22:54:18.854Z,101835.25
2022-10-02T22:56:57.966Z,101827.44
2022-10-02T22:59:30.901Z,101820.63
2022-10-02T23:02:28.908Z,101828.41
2022-10-02T23:04:58.352Z,101829.75
2022-10-02T23:07:43.487Z,101826.78
2022-10-02T23:10:31.193Z,101835.09
2022-10-02T23:13:15.508Z,101836.44
2022-10-02T23:16:08.369Z,101837.75
2022-10-02T23:18:45.505Z,101837.25
2022-10-02T23:21:23.259Z,101832.63
2022-10-02T23:24:05.291Z,101833.13
2022-10-02T23:26:43.760Z,101834.78
2022-10-02T23:29:27.574Z,101838.78
2022-10-02T23:31:59.951Z,101848.25
2022-10-02T23:34:35.839Z,101846.41
2022-10-02T23:37:46.110Z,101846.94
2022-10-02T23:40:47.702Z,101853.09
2022-10-02T23:43:32.723Z,101858.56
2022-10-02T23:46:23.003Z,101857.91
2022-10-02T23:48:49.918Z,101861.91
2022-10-02T23:51:41.948Z,101858.91
2022-10-02T23:54:17.784Z,101864.22
2022-10-02T23:57:19.984Z,101864.72
